Farmville, Virginia
Current Conditions -  °F | °C
As of 5:55 PM on Wednesday 22 Oct 2014 (Local Time) from KFVX Reporting Station
Broken Clouds Broken Clouds  
Wind Chill: 15°   Ceiling: 8000
Heat Index: 15°   Visibility: 10mi
Dew Point:   Wind: 6mph
Humidity: 55%   Direction: 340°NNW
Pressure: 29.96"   Gusts: NA
Location:  37.3°N, 78.39°W
Report Text: KFVX 222155Z AUTO 34005KT 10SM SCT075 BKN080 15/06 A2996 RMK AO2
Loading
Personal Weather Stations






























Interactive Weather Map New forecast layout! Learn more

10-Day Weather Forecast

Advertisements
Track Severe Weather on mobile